createdAt,value
2023-05-01T00:01:34.955Z,3.13
2023-05-01T00:03:40.292Z,2.88
2023-05-01T00:05:46.117Z,2.78
2023-05-01T00:07:51.111Z,2.88
2023-05-01T00:09:56.645Z,2.80
2023-05-01T00:12:05.792Z,3.30
2023-05-01T00:14:12.054Z,2.78
2023-05-01T00:16:17.880Z,2.88
2023-05-01T00:18:22.997Z,2.85
2023-05-01T00:20:31.332Z,3.20
2023-05-01T00:22:37.918Z,3.28
2023-05-01T00:24:43.422Z,2.97
2023-05-01T00:26:48.504Z,3.30
2023-05-01T00:28:56.494Z,2.92
2023-05-01T00:31:01.571Z,3.00
2023-05-01T00:33:07.063Z,3.38
2023-05-01T00:35:19.022Z,3.40
2023-05-01T00:37:25.327Z,2.95
2023-05-01T00:39:31.051Z,3.40
2023-05-01T00:41:38.226Z,3.05
2023-05-01T00:43:43.230Z,3.25
2023-05-01T00:45:52.193Z,3.40
2023-05-01T00:47:57.306Z,2.75
2023-05-01T00:50:03.755Z,3.28
2023-05-01T00:52:10.032Z,2.83
2023-05-01T00:54:18.402Z,2.88
2023-05-01T00:56:23.547Z,2.95
2023-05-01T00:58:28.600Z,2.88
2023-05-01T01:00:36.318Z,3.58
2023-05-01T01:02:54.084Z,3.63
2023-05-01T01:05:01.498Z,3.70
2023-05-01T01:07:14.885Z,3.00
2023-05-01T01:09:38.070Z,3.25
2023-05-01T01:11:59.643Z,3.40
2023-05-01T01:14:16.697Z,3.28
2023-05-01T01:16:31.246Z,3.22
2023-05-01T01:18:48.704Z,3.53
2023-05-01T01:21:00.587Z,3.60
2023-05-01T01:23:40.012Z,3.22
2023-05-01T01:26:12.100Z,3.70
2023-05-01T01:29:00.588Z,2.88
2023-05-01T01:31:17.652Z,3.33
2023-05-01T01:33:54.659Z,3.30
2023-05-01T01:36:05.548Z,3.75
2023-05-01T01:38:22.754Z,3.13
2023-05-01T01:40:38.879Z,3.58
2023-05-01T01:43:01.750Z,3.30
2023-05-01T01:45:14.309Z,2.92
2023-05-01T01:47:21.028Z,2.90
2023-05-01T01:49:31.345Z,2.97
2023-05-01T01:51:39.719Z,3.20
2023-05-01T01:53:48.757Z,3.05
2023-05-01T01:55:54.951Z,3.40
2023-05-01T01:58:02.534Z,3.33
2023-05-01T02:00:11.299Z,3.30
2023-05-01T02:02:32.330Z,3.00
2023-05-01T02:04:42.245Z,3.30
2023-05-01T02:06:51.862Z,4.00
2023-05-01T02:09:03.324Z,3.20
2023-05-01T02:11:09.229Z,3.15
2023-05-01T02:13:18.651Z,2.97
2023-05-01T02:15:25.496Z,3.20
2023-05-01T02:17:32.397Z,2.90
2023-05-01T02:19:44.629Z,3.00
2023-05-01T02:21:51.534Z,2.90
2023-05-01T02:24:03.188Z,2.90
2023-05-01T02:26:12.799Z,2.95
2023-05-01T02:28:24.008Z,3.30
2023-05-01T02:30:29.588Z,3.22
2023-05-01T02:32:35.142Z,3.45
2023-05-01T02:34:42.769Z,3.40
2023-05-01T02:36:48.411Z,3.80
2023-05-01T02:38:53.811Z,3.50
2023-05-01T02:41:01.247Z,3.42
2023-05-01T02:43:12.391Z,3.47
2023-05-01T02:45:27.067Z,3.50
2023-05-01T02:47:36.267Z,3.10
2023-05-01T02:49:44.999Z,3.33
2023-05-01T02:51:58.048Z,2.90
2023-05-01T02:54:03.956Z,2.75
2023-05-01T02:56:11.016Z,2.92
2023-05-01T02:58:20.445Z,3.28
2023-05-01T03:00:25.845Z,3.22
2023-05-01T03:02:32.586Z,3.00
2023-05-01T03:04:38.823Z,3.35
2023-05-01T03:06:47.415Z,3.30
2023-05-01T03:10:59.973Z,3.05
2023-05-01T03:13:06.331Z,3.30
2023-05-01T03:15:13.456Z,3.10
2023-05-01T03:17:22.873Z,3.25
2023-05-01T03:19:29.411Z,3.17
2023-05-01T03:21:39.707Z,3.63
2023-05-01T03:23:49.402Z,3.30
2023-05-01T03:25:55.688Z,3.15
2023-05-01T03:28:04.240Z,3.65
2023-05-01T03:30:12.050Z,3.20
2023-05-01T03:32:21.750Z,3.47
2023-05-01T03:34:29.973Z,3.97
2023-05-01T03:36:35.704Z,3.42
2023-05-01T03:38:42.592Z,3.17
2023-05-01T03:40:52.334Z,3.15
2023-05-01T03:43:16.990Z,3.40
2023-05-01T03:45:22.730Z,2.88
2023-05-01T03:47:28.124Z,3.10
2023-05-01T03:49:34.208Z,3.15
2023-05-01T03:51:40.066Z,3.38
2023-05-01T03:53:45.205Z,2.80
2023-05-01T03:55:54.026Z,3.20
2023-05-01T03:57:59.236Z,2.70
2023-05-01T04:00:05.666Z,2.95
2023-05-01T04:02:21.005Z,2.90
2023-05-01T04:04:26.929Z,3.00
2023-05-01T04:06:35.420Z,3.28
2023-05-01T04:08:42.490Z,2.92
2023-05-01T04:10:47.788Z,2.83
2023-05-01T04:12:56.770Z,2.95
2023-05-01T04:15:02.119Z,2.80
2023-05-01T04:17:07.371Z,3.00
2023-05-01T04:19:19.828Z,3.40
2023-05-01T04:21:37.967Z,3.00
2023-05-01T04:23:43.037Z,3.05
2023-05-01T04:25:48.881Z,4.00
2023-05-01T04:27:59.915Z,2.83
2023-05-01T04:30:04.966Z,2.65
2023-05-01T04:32:11.033Z,3.22
2023-05-01T04:34:19.745Z,2.80
2023-05-01T04:36:25.349Z,2.88
2023-05-01T04:38:31.219Z,3.17
2023-05-01T04:40:39.135Z,3.25
2023-05-01T04:42:50.176Z,2.80
2023-05-01T04:44:58.163Z,2.78
2023-05-01T04:49:12.405Z,2.92
2023-05-01T04:51:20.054Z,3.00
2023-05-01T04:53:25.369Z,2.90
2023-05-01T04:55:31.095Z,2.88
2023-05-01T04:57:43.679Z,2.97
2023-05-01T04:59:50.966Z,3.20
2023-05-01T05:01:59.660Z,3.40
2023-05-01T05:04:04.939Z,2.97
2023-05-01T05:06:13.133Z,3.00
2023-05-01T05:08:20.968Z,3.22
2023-05-01T05:10:34.256Z,3.00
2023-05-01T05:13:10.211Z,2.90
2023-05-01T05:15:17.111Z,3.80
2023-05-01T05:17:24.955Z,3.78
2023-05-01T05:19:33.643Z,3.03
2023-05-01T05:21:42.203Z,4.10
2023-05-01T05:23:48.259Z,3.80
2023-05-01T05:25:54.464Z,3.72
2023-05-01T05:27:59.864Z,3.95
2023-05-01T05:30:05.633Z,4.20
2023-05-01T05:34:24.776Z,3.72
2023-05-01T05:36:30.472Z,3.90
2023-05-01T05:38:36.766Z,3.88
2023-05-01T05:40:44.303Z,4.00
2023-05-01T05:42:52.999Z,3.72
2023-05-01T05:44:58.582Z,4.13
2023-05-01T05:47:03.761Z,3.78
2023-05-01T05:49:13.422Z,3.97
2023-05-01T05:51:22.212Z,4.10
2023-05-01T05:53:31.675Z,4.10
2023-05-01T05:55:38.787Z,4.28
2023-05-01T05:59:50.180Z,4.60
2023-05-01T06:02:00.563Z,3.97
2023-05-01T06:04:08.110Z,4.20
2023-05-01T06:06:17.601Z,4.22
2023-05-01T06:08:28.023Z,4.30
2023-05-01T06:10:34.672Z,4.55
2023-05-01T06:12:45.868Z,3.80
2023-05-01T06:14:57.583Z,4.10
2023-05-01T06:17:02.675Z,4.05
2023-05-01T06:19:08.014Z,4.15
2023-05-01T06:21:13.554Z,3.78
2023-05-01T06:23:22.832Z,3.72
2023-05-01T06:26:08.695Z,3.80
2023-05-01T06:28:14.146Z,3.90
2023-05-01T06:30:19.933Z,3.92
2023-05-01T06:32:24.960Z,3.80
2023-05-01T06:34:31.021Z,3.90
2023-05-01T06:36:44.102Z,4.45
2023-05-01T06:38:49.823Z,4.22
2023-05-01T06:40:59.573Z,3.97
2023-05-01T06:43:10.359Z,4.07
2023-05-01T06:45:15.906Z,4.45
2023-05-01T06:47:23.220Z,4.13
2023-05-01T06:49:28.235Z,4.18
2023-05-01T06:51:35.074Z,4.07
2023-05-01T06:53:42.069Z,4.00
2023-05-01T06:55:47.132Z,3.95
2023-05-01T06:57:52.158Z,3.97
2023-05-01T06:59:59.920Z,4.05
2023-05-01T07:04:13.690Z,4.20
2023-05-01T07:06:18.765Z,3.97
2023-05-01T07:08:24.430Z,3.85
2023-05-01T07:10:30.528Z,3.90
2023-05-01T07:12:37.176Z,4.50
2023-05-01T07:14:42.504Z,4.22
2023-05-01T07:16:51.538Z,4.25
2023-05-01T07:18:58.676Z,4.25
2023-05-01T07:21:03.732Z,3.83
2023-05-01T07:23:09.898Z,4.60
2023-05-01T07:25:18.426Z,4.18
2023-05-01T07:27:25.285Z,4.90
2023-05-01T07:29:30.487Z,4.57
2023-05-01T07:31:39.428Z,4.72
2023-05-01T07:33:47.726Z,4.32
2023-05-01T07:35:52.984Z,4.20
2023-05-01T07:37:58.094Z,4.53
2023-05-01T07:40:04.012Z,4.57
2023-05-01T07:42:09.352Z,5.10
2023-05-01T07:44:17.278Z,4.45
2023-05-01T07:46:22.414Z,4.70
2023-05-01T07:48:30.632Z,4.78
2023-05-01T07:50:39.263Z,5.15
2023-05-01T07:52:58.826Z,4.78
2023-05-01T07:55:04.108Z,4.82
2023-05-01T07:57:10.999Z,5.00
2023-05-01T07:59:16.040Z,4.80
2023-05-01T08:01:23.636Z,5.60
2023-05-01T08:03:32.988Z,5.07
2023-05-01T08:05:44.352Z,5.03
2023-05-01T08:07:49.687Z,5.07
2023-05-01T08:09:57.053Z,4.72
2023-05-01T08:12:04.156Z,5.30
2023-05-01T08:14:09.469Z,4.90
2023-05-01T08:16:15.532Z,5.00
2023-05-01T08:18:24.144Z,5.45
2023-05-01T08:20:32.473Z,5.05
2023-05-01T08:22:44.962Z,5.95
2023-05-01T08:24:49.968Z,5.40
2023-05-01T08:26:58.389Z,5.47
2023-05-01T08:29:03.434Z,5.90
2023-05-01T08:31:10.064Z,5.63
2023-05-01T08:33:19.120Z,5.53
2023-05-01T08:35:24.434Z,5.35
2023-05-01T08:37:29.507Z,5.95
2023-05-01T08:39:37.233Z,5.70
2023-05-01T08:41:44.317Z,6.05
2023-05-01T08:43:49.776Z,5.63
2023-05-01T08:46:00.581Z,6.18
2023-05-01T08:48:08.766Z,5.57
2023-05-01T08:50:16.641Z,5.65
2023-05-01T08:52:25.128Z,5.93
2023-05-01T08:54:54.748Z,5.60
2023-05-01T08:57:08.973Z,5.35
2023-05-01T08:59:17.973Z,5.40
2023-05-01T09:01:24.993Z,6.05
2023-05-01T09:03:31.707Z,5.22
2023-05-01T09:05:37.052Z,5.45
2023-05-01T09:07:43.667Z,4.90
2023-05-01T09:09:57.299Z,5.43
2023-05-01T09:12:11.625Z,5.50
2023-05-01T09:14:17.808Z,5.20
2023-05-01T09:16:24.942Z,4.97
2023-05-01T09:18:31.488Z,4.97
2023-05-01T09:20:39.368Z,5.30
2023-05-01T09:22:52.706Z,4.72
2023-05-01T09:25:00.340Z,4.63
2023-05-01T09:29:11.878Z,4.95
2023-05-01T09:31:29.077Z,4.57
2023-05-01T09:33:34.485Z,4.88
2023-05-01T09:35:54.286Z,4.85
2023-05-01T09:37:59.417Z,4.70
2023-05-01T09:40:17.288Z,4.50
2023-05-01T09:42:27.480Z,4.43
2023-05-01T09:44:35.700Z,4.63
2023-05-01T09:46:47.702Z,4.60
2023-05-01T09:48:59.145Z,4.65
2023-05-01T09:51:04.521Z,4.80
2023-05-01T09:53:13.377Z,4.80
2023-05-01T09:55:25.449Z,3.92
2023-05-01T09:57:43.148Z,4.05
2023-05-01T10:00:08.700Z,4.38
2023-05-01T10:02:34.148Z,4.30
2023-05-01T10:04:41.851Z,4.65
2023-05-01T10:06:49.560Z,3.85
